Pagrindinis puslapis
METAR-TAF:

METAR-TAF

Oro uostai :

New Stuyahok, Aliaska, Jungtinės Amerikos Valstijos

platuma: 59-27-06N, ilguma: 157-22-23W, Aukštis: 111 m

Dabartinis oras

Ataskaita buvo paskelbta 19 minutes, ne 20:56 UTC
Vėjas 5 kt nuo kintamojo kryptimis
Temperatūra 7°C
Drėgmė 53%
Slėgis 1006 hPa
Matomumas: 16.1 km
Giedras dangus

METAR: PANW 212056Z AUTO VRB05KT 10SM CLR 07/M02 A2970 RMK AO2 SLP075 T00671022 51003

Laikas: 13:15 (21:15 UTC)


TAF: trūkstamas

Orai ataskaitas ir orų prognozės (METAR, TAF).

turimą stotys yra geltonos ir raudonos taškus žemėlapyje.

Perkelti pele per norėdami pamatyti stoties vardą.

Tada spustelėkite, norėdami matyti oro stebėjimo ir prognozės.

Norėdami pakeisti žemėlapį: spustelėkite ant žalios mygtukų su juodo kryžiaus žemyn,; žalią mygtuką su brūkšneliu, jei norite nutolinti; arba žalių rodyklių gretimoms žemėlapius.


METAR-TAF: